createdAt,value
2019-03-15T00:02:06.217Z,88.67
2019-03-15T00:04:39.848Z,88.31
2019-03-15T00:07:09.154Z,88.42
2019-03-15T00:09:39.653Z,88.01
2019-03-15T00:12:10.145Z,89.03
2019-03-15T00:14:40.642Z,89.87
2019-03-15T00:17:11.102Z,91.25
2019-03-15T00:19:41.603Z,92.30
2019-03-15T00:22:12.076Z,92.88
2019-03-15T00:24:42.711Z,93.04
2019-03-15T00:27:13.172Z,93.46
2019-03-15T00:29:43.652Z,93.24
2019-03-15T00:32:16.532Z,93.13
2019-03-15T00:34:47.003Z,93.22
2019-03-15T00:37:17.485Z,93.95
2019-03-15T00:39:47.950Z,93.99
2019-03-15T00:42:18.456Z,94.57
2019-03-15T00:44:48.908Z,95.15
2019-03-15T00:47:19.381Z,95.59
2019-03-15T00:49:49.859Z,95.84
2019-03-15T00:52:20.343Z,95.18
2019-03-15T00:54:50.818Z,94.00
2019-03-15T00:57:21.313Z,93.84
2019-03-15T00:59:51.714Z,92.95
2019-03-15T01:02:22.168Z,92.96
2019-03-15T01:04:52.585Z,93.16
2019-03-15T01:07:23.007Z,92.22
2019-03-15T01:09:53.470Z,92.30
2019-03-15T01:12:24.173Z,92.14
2019-03-15T01:14:54.618Z,91.47
2019-03-15T01:17:25.091Z,90.05
2019-03-15T01:19:55.559Z,89.61
2019-03-15T01:22:26.029Z,89.40
2019-03-15T01:24:56.482Z,87.59
2019-03-15T01:27:26.964Z,88.11
2019-03-15T01:29:57.423Z,88.53
2019-03-15T01:32:27.919Z,88.21
2019-03-15T01:34:58.558Z,87.16
2019-03-15T01:37:29.006Z,87.65
2019-03-15T01:39:59.467Z,87.92
2019-03-15T01:42:29.971Z,87.11
2019-03-15T01:45:00.476Z,87.87
2019-03-15T01:47:30.956Z,88.70
2019-03-15T01:50:01.412Z,87.44
2019-03-15T01:52:31.909Z,86.87
2019-03-15T01:55:02.309Z,86.72
2019-03-15T01:57:32.740Z,86.61
2019-03-15T02:00:03.302Z,85.76
2019-03-15T02:02:33.644Z,86.80
2019-03-15T02:05:04.217Z,86.01
2019-03-15T02:07:34.813Z,86.80
2019-03-15T02:10:06.029Z,85.45
2019-03-15T02:12:36.452Z,85.10
2019-03-15T02:15:07.818Z,84.20
2019-03-15T02:17:38.409Z,84.96
2019-03-15T02:20:09.517Z,83.30
2019-03-15T02:22:39.971Z,83.75
2019-03-15T02:25:10.428Z,83.80
2019-03-15T02:27:40.905Z,83.99
2019-03-15T02:30:11.730Z,84.34
2019-03-15T02:32:42.174Z,83.81
2019-03-15T02:35:12.711Z,83.80
2019-03-15T02:37:43.144Z,83.78
2019-03-15T02:40:13.639Z,84.18
2019-03-15T02:42:44.130Z,84.31
2019-03-15T02:45:14.653Z,84.82
2019-03-15T02:47:46.292Z,85.36
2019-03-15T02:50:17.413Z,85.12
2019-03-15T02:52:48.279Z,85.17
2019-03-15T02:55:18.764Z,85.91
2019-03-15T02:57:49.265Z,85.73
2019-03-15T03:00:19.774Z,85.81
2019-03-15T03:02:50.258Z,85.06
2019-03-15T03:05:20.829Z,85.43
2019-03-15T03:07:51.386Z,85.70
2019-03-15T03:10:21.912Z,85.88
2019-03-15T03:12:52.452Z,86.28
2019-03-15T03:15:22.900Z,86.65
2019-03-15T03:17:53.302Z,87.75
2019-03-15T03:20:23.849Z,88.46
2019-03-15T03:22:54.356Z,88.99
2019-03-15T03:25:24.801Z,89.39
2019-03-15T03:27:55.319Z,89.73
2019-03-15T03:30:25.790Z,89.87
2019-03-15T03:32:56.248Z,89.53
2019-03-15T03:35:26.774Z,89.44
2019-03-15T03:37:57.288Z,89.40
2019-03-15T03:40:29.115Z,89.48
2019-03-15T03:43:00.058Z,88.97
2019-03-15T03:45:30.514Z,89.38
2019-03-15T03:48:00.907Z,89.89
2019-03-15T03:50:31.488Z,90.93
2019-03-15T03:53:01.869Z,91.96
2019-03-15T03:55:32.337Z,92.41
2019-03-15T03:58:02.812Z,92.54
2019-03-15T04:00:33.285Z,92.68
2019-03-15T04:03:03.752Z,92.60
2019-03-15T04:05:34.830Z,92.62
2019-03-15T04:08:05.402Z,92.58
2019-03-15T04:10:35.872Z,92.25
2019-03-15T04:13:06.366Z,92.26
2019-03-15T04:15:36.839Z,92.26
2019-03-15T04:18:07.313Z,92.22
2019-03-15T04:20:37.875Z,92.15
2019-03-15T04:23:08.375Z,92.13
2019-03-15T04:25:40.566Z,92.31
2019-03-15T04:28:11.472Z,92.47
2019-03-15T04:30:41.942Z,92.59
2019-03-15T04:33:12.428Z,92.65
2019-03-15T04:35:43.820Z,92.42
2019-03-15T04:38:14.335Z,92.37
2019-03-15T04:40:44.779Z,92.40
2019-03-15T04:43:15.373Z,92.09
2019-03-15T04:45:45.866Z,91.85
2019-03-15T04:48:16.354Z,91.61
2019-03-15T04:50:47.033Z,91.77
2019-03-15T04:53:17.594Z,91.68
2019-03-15T04:55:48.006Z,91.41
2019-03-15T04:58:18.500Z,91.54
2019-03-15T05:00:49.016Z,91.76
2019-03-15T05:03:19.557Z,91.36
2019-03-15T05:06:02.390Z,91.42
2019-03-15T05:08:22.376Z,91.27
2019-03-15T05:10:53.411Z,91.32
2019-03-15T05:13:23.963Z,91.06
2019-03-15T05:15:54.528Z,91.41
2019-03-15T05:18:25.073Z,91.55
2019-03-15T05:20:55.655Z,91.75
2019-03-15T05:23:26.193Z,91.92
2019-03-15T05:25:56.704Z,91.83
2019-03-15T05:28:27.259Z,91.35
2019-03-15T05:30:57.786Z,91.25
2019-03-15T05:33:28.350Z,91.27
2019-03-15T05:35:58.951Z,91.20
2019-03-15T05:38:29.496Z,90.91
2019-03-15T05:41:00.038Z,90.87
2019-03-15T05:43:30.691Z,91.06
2019-03-15T05:46:01.266Z,91.34
2019-03-15T05:48:31.786Z,91.20
2019-03-15T05:51:02.406Z,90.87
2019-03-15T05:53:32.922Z,91.04
2019-03-15T05:56:03.490Z,91.06
2019-03-15T05:58:34.450Z,90.98
2019-03-15T06:01:04.949Z,91.37
2019-03-15T06:03:47.778Z,91.23
2019-03-15T06:06:08.364Z,91.29
2019-03-15T06:08:38.955Z,91.51
2019-03-15T06:11:09.509Z,91.32
2019-03-15T06:13:40.176Z,91.32
2019-03-15T06:16:10.751Z,91.15
2019-03-15T06:18:41.253Z,91.13
2019-03-15T06:21:11.807Z,90.73
2019-03-15T06:23:42.358Z,90.64
2019-03-15T06:26:12.955Z,90.63
2019-03-15T06:28:43.527Z,90.72
2019-03-15T06:31:13.999Z,90.77
2019-03-15T06:33:44.491Z,90.61
2019-03-15T06:36:15.039Z,90.78
2019-03-15T06:38:45.619Z,91.00
2019-03-15T06:41:16.167Z,90.66
2019-03-15T06:43:46.719Z,90.93
2019-03-15T06:46:17.217Z,91.08
2019-03-15T06:48:47.711Z,91.00
2019-03-15T06:51:18.348Z,90.85
2019-03-15T06:53:48.916Z,90.81
2019-03-15T06:56:19.467Z,90.21
2019-03-15T06:58:49.972Z,90.28
2019-03-15T07:01:20.502Z,90.44
2019-03-15T07:03:51.034Z,90.72
2019-03-15T07:06:21.695Z,90.81
2019-03-15T07:08:52.291Z,90.64
2019-03-15T07:11:22.879Z,90.83
2019-03-15T07:13:53.407Z,90.41
2019-03-15T07:16:23.913Z,90.65
2019-03-15T07:18:54.505Z,89.95
2019-03-15T07:21:25.043Z,90.53
2019-03-15T07:23:57.887Z,89.89
2019-03-15T07:26:27.833Z,90.06
2019-03-15T07:28:58.483Z,90.04
2019-03-15T07:31:29.053Z,89.54
2019-03-15T07:33:59.597Z,89.49
2019-03-15T07:36:30.190Z,89.79
2019-03-15T07:39:00.720Z,89.73
2019-03-15T07:41:31.228Z,89.78
2019-03-15T07:44:01.867Z,89.57
2019-03-15T07:46:32.398Z,89.81
2019-03-15T07:49:02.959Z,88.99
2019-03-15T07:51:33.610Z,89.00
2019-03-15T07:54:04.122Z,89.29
2019-03-15T07:56:34.623Z,88.30
2019-03-15T07:59:05.162Z,88.43
2019-03-15T08:01:35.644Z,88.89
2019-03-15T08:04:16.332Z,88.73
2019-03-15T08:06:38.476Z,88.56
2019-03-15T08:09:09.637Z,88.30
2019-03-15T08:11:40.142Z,88.27
2019-03-15T08:14:10.690Z,88.43
2019-03-15T08:16:41.195Z,88.32
2019-03-15T08:19:11.730Z,87.64
2019-03-15T08:21:42.256Z,87.81
2019-03-15T08:24:12.751Z,87.89
2019-03-15T08:26:43.231Z,87.67
2019-03-15T08:29:13.759Z,87.15
2019-03-15T08:31:46.947Z,86.73
2019-03-15T08:34:16.510Z,87.19
2019-03-15T08:36:47.083Z,86.87
2019-03-15T08:39:17.624Z,86.88
2019-03-15T08:41:48.336Z,86.71
2019-03-15T08:44:18.880Z,86.45
2019-03-15T08:46:49.388Z,86.33
2019-03-15T08:49:19.880Z,85.81
2019-03-15T08:52:03.116Z,85.79
2019-03-15T08:54:22.739Z,86.05
2019-03-15T08:56:53.229Z,85.73
2019-03-15T08:59:23.795Z,85.38
2019-03-15T09:01:54.339Z,85.43
2019-03-15T09:04:24.889Z,84.34
2019-03-15T09:06:55.405Z,84.45
2019-03-15T09:09:25.922Z,84.70
2019-03-15T09:11:56.451Z,84.00
2019-03-15T09:14:26.878Z,83.83
2019-03-15T09:16:57.404Z,83.66
2019-03-15T09:19:27.924Z,83.86
2019-03-15T09:22:00.562Z,83.14
2019-03-15T09:24:30.961Z,83.23
2019-03-15T09:27:01.472Z,83.41
2019-03-15T09:29:32.003Z,82.70
2019-03-15T09:32:08.714Z,82.53
2019-03-15T09:34:34.786Z,83.02
2019-03-15T09:37:05.506Z,83.18
2019-03-15T09:39:36.055Z,82.75
2019-03-15T09:42:06.790Z,82.68
2019-03-15T09:44:37.727Z,83.00
2019-03-15T09:47:08.359Z,83.36
2019-03-15T09:49:38.870Z,82.40
2019-03-15T09:52:09.422Z,82.07
2019-03-15T09:54:39.969Z,82.43
2019-03-15T09:57:10.469Z,82.07
2019-03-15T09:59:41.020Z,81.59
2019-03-15T10:02:11.537Z,80.53
2019-03-15T10:04:42.073Z,79.75
2019-03-15T10:07:12.619Z,79.66
2019-03-15T10:09:46.177Z,79.39
2019-03-15T10:12:15.393Z,80.39
2019-03-15T10:14:45.950Z,81.29
2019-03-15T10:17:16.438Z,82.40
2019-03-15T10:19:47.000Z,82.21
2019-03-15T10:22:17.498Z,82.73
2019-03-15T10:24:50.010Z,82.34
2019-03-15T10:27:20.493Z,82.67
2019-03-15T10:29:50.912Z,82.93
2019-03-15T10:32:21.383Z,83.63
2019-03-15T10:34:51.920Z,84.07
2019-03-15T10:37:22.562Z,84.36
2019-03-15T10:39:53.134Z,84.28
2019-03-15T10:42:23.678Z,84.85
2019-03-15T10:44:54.218Z,85.39
2019-03-15T10:47:24.767Z,85.38
2019-03-15T10:49:55.254Z,86.38
2019-03-15T10:52:25.772Z,85.57
2019-03-15T10:54:56.261Z,86.26
2019-03-15T10:57:26.923Z,86.93
2019-03-15T10:59:57.464Z,86.39
2019-03-15T11:02:27.955Z,86.45
2019-03-15T11:04:58.512Z,86.31
2019-03-15T11:07:29.033Z,86.26
2019-03-15T11:09:59.563Z,86.15
2019-03-15T11:12:30.342Z,86.48
2019-03-15T11:15:00.862Z,86.38
2019-03-15T11:17:31.440Z,87.56
2019-03-15T11:20:02.007Z,87.63
2019-03-15T11:22:32.548Z,87.78
2019-03-15T11:25:03.097Z,88.70
2019-03-15T11:27:33.747Z,89.58
2019-03-15T11:30:04.265Z,89.69
2019-03-15T11:32:34.787Z,90.68
2019-03-15T11:35:05.698Z,90.47
2019-03-15T11:37:36.174Z,91.03
2019-03-15T11:40:07.699Z,91.41
2019-03-15T11:42:38.248Z,91.87
2019-03-15T11:45:09.696Z,91.99
2019-03-15T11:47:56.376Z,92.18
2019-03-15T11:50:12.620Z,92.47
2019-03-15T11:52:43.140Z,92.93
2019-03-15T11:55:13.623Z,93.06
2019-03-15T11:57:44.202Z,93.22
2019-03-15T12:00:14.712Z,93.72
2019-03-15T12:02:45.253Z,93.82
2019-03-15T12:05:16.441Z,93.92
2019-03-15T12:07:46.948Z,94.09
2019-03-15T12:10:18.038Z,93.77
2019-03-15T12:12:48.639Z,94.05
2019-03-15T12:15:19.145Z,94.36
2019-03-15T12:17:49.702Z,94.18
2019-03-15T12:20:20.299Z,94.31
2019-03-15T12:22:50.794Z,94.44
2019-03-15T12:25:21.293Z,94.46
2019-03-15T12:27:51.829Z,94.60
2019-03-15T12:30:22.382Z,94.81
2019-03-15T12:32:52.869Z,95.19
2019-03-15T12:35:23.456Z,95.24
2019-03-15T12:37:53.926Z,95.43
2019-03-15T12:40:24.405Z,95.38
2019-03-15T12:42:54.987Z,95.43
2019-03-15T12:45:25.494Z,95.72
2019-03-15T12:47:56.016Z,95.86
2019-03-15T12:50:26.622Z,95.91
2019-03-15T12:52:57.108Z,96.30
2019-03-15T12:55:27.615Z,96.55
2019-03-15T12:57:58.210Z,96.72
2019-03-15T13:00:28.696Z,96.73
2019-03-15T13:02:59.331Z,96.79
2019-03-15T13:05:29.944Z,96.99
2019-03-15T13:08:00.469Z,96.97
2019-03-15T13:10:31.015Z,97.02
2019-03-15T13:13:01.493Z,97.16
2019-03-15T13:15:32.293Z,97.30
2019-03-15T13:18:02.862Z,97.32
2019-03-15T13:20:33.940Z,97.27
2019-03-15T13:23:04.402Z,97.18
2019-03-15T13:25:34.882Z,96.77
2019-03-15T13:28:05.442Z,96.38
2019-03-15T13:30:35.906Z,96.36
2019-03-15T13:33:19.149Z,96.36
2019-03-15T13:35:38.742Z,95.97
2019-03-15T13:38:09.261Z,95.30
2019-03-15T13:40:39.755Z,95.23
2019-03-15T13:43:10.330Z,94.48
2019-03-15T13:45:40.920Z,94.40
2019-03-15T13:48:11.379Z,94.07
2019-03-15T13:50:41.890Z,92.86
2019-03-15T13:53:12.416Z,91.75
2019-03-15T13:55:43.022Z,91.03
2019-03-15T13:58:13.551Z,88.09
2019-03-15T14:00:44.047Z,86.48
2019-03-15T14:03:14.637Z,86.09
2019-03-15T14:05:45.254Z,85.91
2019-03-15T14:08:15.741Z,85.43
2019-03-15T14:10:49.637Z,84.03
2019-03-15T14:13:18.686Z,84.46
2019-03-15T14:15:49.278Z,84.84
2019-03-15T14:18:21.541Z,83.46
2019-03-15T14:20:52.023Z,83.42
2019-03-15T14:23:22.545Z,83.35
2019-03-15T14:25:53.049Z,81.93
2019-03-15T14:28:23.578Z,80.33
2019-03-15T14:30:54.092Z,77.83
2019-03-15T14:33:24.688Z,78.05
2019-03-15T14:35:55.281Z,77.62
2019-03-15T14:38:26.020Z,76.03
2019-03-15T14:40:56.493Z,75.04
2019-03-15T14:43:27.055Z,76.18
2019-03-15T14:45:57.529Z,75.12
2019-03-15T14:48:28.077Z,73.66
2019-03-15T14:50:58.727Z,73.75
2019-03-15T14:53:29.278Z,73.36
2019-03-15T14:55:59.784Z,72.71
2019-03-15T14:58:30.315Z,71.80
2019-03-15T15:01:00.951Z,72.76
2019-03-15T15:03:34.621Z,72.49
2019-03-15T15:06:05.219Z,72.93
2019-03-15T15:08:35.745Z,72.65
2019-03-15T15:11:06.393Z,72.41
2019-03-15T15:13:36.927Z,72.36
2019-03-15T15:16:07.511Z,71.47
2019-03-15T15:18:38.304Z,71.53
2019-03-15T15:21:08.846Z,71.01
2019-03-15T15:23:39.492Z,71.70
2019-03-15T15:26:10.075Z,72.00
2019-03-15T15:28:40.643Z,72.11
2019-03-15T15:31:11.785Z,71.14
2019-03-15T15:33:42.378Z,71.56
2019-03-15T15:36:12.988Z,71.83
2019-03-15T15:38:43.552Z,71.71
2019-03-15T15:41:14.091Z,72.95
2019-03-15T15:43:44.661Z,73.19
2019-03-15T15:46:16.100Z,73.04
2019-03-15T15:48:46.686Z,73.32
2019-03-15T15:51:17.364Z,73.76
2019-03-15T15:53:48.167Z,73.33
2019-03-15T15:56:18.731Z,72.50
2019-03-15T15:58:49.462Z,72.01
2019-03-15T16:01:20.072Z,71.39
2019-03-15T16:03:51.151Z,70.66
2019-03-15T16:06:21.814Z,71.44
2019-03-15T16:08:52.791Z,71.79
2019-03-15T16:11:23.650Z,70.85
2019-03-15T16:13:54.672Z,70.69
2019-03-15T16:16:25.245Z,70.84
2019-03-15T16:18:56.150Z,71.66
2019-03-15T16:21:26.765Z,70.58
2019-03-15T16:23:57.539Z,70.58
2019-03-15T16:26:28.068Z,69.68
2019-03-15T16:28:58.618Z,70.43
2019-03-15T16:31:29.122Z,69.60
2019-03-15T16:33:59.968Z,69.47
2019-03-15T16:36:30.714Z,68.99
2019-03-15T16:39:01.566Z,69.22
2019-03-15T16:41:32.167Z,69.01
2019-03-15T16:44:02.861Z,69.16
2019-03-15T16:46:33.591Z,68.79
2019-03-15T16:49:04.917Z,69.13
2019-03-15T16:51:36.062Z,69.01
2019-03-15T16:54:06.634Z,69.56
2019-03-15T16:56:37.213Z,69.38
2019-03-15T16:59:07.759Z,69.44
2019-03-15T17:01:38.360Z,69.63
2019-03-15T17:04:08.974Z,70.45
2019-03-15T17:06:39.534Z,70.58
2019-03-15T17:09:10.177Z,70.59
2019-03-15T17:11:40.701Z,70.78
2019-03-15T17:14:24.729Z,71.81
2019-03-15T17:16:43.578Z,71.43
2019-03-15T17:19:14.080Z,71.60
2019-03-15T17:21:47.437Z,71.86
2019-03-15T17:24:18.057Z,71.88
2019-03-15T17:26:51.328Z,71.88
2019-03-15T17:29:23.967Z,72.80
2019-03-15T17:31:54.592Z,72.42
2019-03-15T17:34:25.148Z,71.67
2019-03-15T17:37:06.170Z,71.94
2019-03-15T17:39:28.413Z,71.45
2019-03-15T17:41:59.207Z,71.67
2019-03-15T17:44:29.905Z,71.55
2019-03-15T17:47:00.611Z,71.76
2019-03-15T17:49:31.229Z,71.69
2019-03-15T17:52:01.824Z,72.10
2019-03-15T17:54:32.440Z,71.10
2019-03-15T17:57:03.018Z,71.67
2019-03-15T17:59:33.595Z,71.70
2019-03-15T18:02:04.357Z,72.01
2019-03-15T18:04:35.098Z,72.44
2019-03-15T18:07:05.765Z,72.35
2019-03-15T18:09:36.403Z,72.32
2019-03-15T18:12:07.021Z,72.73
2019-03-15T18:14:37.704Z,72.71
2019-03-15T18:17:08.320Z,72.43
2019-03-15T18:19:39.122Z,71.95
2019-03-15T18:22:09.902Z,72.08
2019-03-15T18:24:43.065Z,72.69
2019-03-15T18:27:12.688Z,72.56
2019-03-15T18:29:43.490Z,72.29
2019-03-15T18:32:14.303Z,72.57
2019-03-15T18:34:44.884Z,72.08
2019-03-15T18:37:15.481Z,72.05
2019-03-15T18:39:46.041Z,71.72
2019-03-15T18:42:16.631Z,71.65
2019-03-15T18:44:47.306Z,71.78
2019-03-15T18:47:17.823Z,71.71
2019-03-15T18:49:48.432Z,71.50
2019-03-15T18:52:19.002Z,71.87
2019-03-15T18:54:49.509Z,72.20
2019-03-15T18:57:20.106Z,71.62
2019-03-15T18:59:50.740Z,71.39
2019-03-15T19:02:21.551Z,71.75
2019-03-15T19:04:52.155Z,71.82
2019-03-15T19:07:22.691Z,72.16
2019-03-15T19:09:53.246Z,71.65
2019-03-15T19:12:23.796Z,70.18
2019-03-15T19:14:54.372Z,69.95
2019-03-15T19:17:24.960Z,70.99
2019-03-15T19:19:55.537Z,71.22
2019-03-15T19:22:26.159Z,71.94
2019-03-15T19:24:56.678Z,72.63
2019-03-15T19:27:27.758Z,72.55
2019-03-15T19:29:58.393Z,72.84
2019-03-15T19:32:28.999Z,72.93
2019-03-15T19:34:59.695Z,75.71
2019-03-15T19:37:30.596Z,77.48
2019-03-15T19:40:01.182Z,76.16
2019-03-15T19:42:31.833Z,74.63
2019-03-15T19:45:02.466Z,73.63
2019-03-15T19:47:33.007Z,73.90
2019-03-15T19:50:03.647Z,73.82
2019-03-15T19:52:34.424Z,72.82
2019-03-15T19:55:05.757Z,73.04
2019-03-15T19:57:36.510Z,72.99
2019-03-15T20:00:08.886Z,73.03
2019-03-15T20:02:39.772Z,73.09
2019-03-15T20:05:17.509Z,72.42
2019-03-15T20:07:48.302Z,72.87
2019-03-15T20:10:18.957Z,73.02
2019-03-15T20:12:49.618Z,72.94
2019-03-15T20:15:20.418Z,72.28
2019-03-15T20:17:51.148Z,72.55
2019-03-15T20:20:22.021Z,72.31
2019-03-15T20:22:52.816Z,72.64
2019-03-15T20:25:23.438Z,73.08
2019-03-15T20:27:54.091Z,73.08
2019-03-15T20:30:26.807Z,73.36
2019-03-15T20:32:57.060Z,73.26
2019-03-15T20:35:27.872Z,73.48
2019-03-15T20:37:58.844Z,73.66
2019-03-15T20:40:29.607Z,74.07
2019-03-15T20:43:00.332Z,73.90
2019-03-15T20:45:30.984Z,74.19
2019-03-15T20:48:01.431Z,74.40
2019-03-15T20:50:45.863Z,74.33
2019-03-15T20:53:09.689Z,74.43
2019-03-15T20:55:39.847Z,74.34
2019-03-15T20:58:10.879Z,74.81
2019-03-15T21:00:41.752Z,74.68
2019-03-15T21:03:12.517Z,75.06
2019-03-15T21:05:43.438Z,74.81
2019-03-15T21:08:14.196Z,75.33
2019-03-15T21:10:47.502Z,74.50
2019-03-15T21:13:18.215Z,74.86
2019-03-15T21:15:49.256Z,75.25
2019-03-15T21:18:20.683Z,75.12
2019-03-15T21:20:51.570Z,75.27
2019-03-15T21:23:22.285Z,74.93
2019-03-15T21:25:53.281Z,74.44
2019-03-15T21:28:25.101Z,74.36
2019-03-15T21:30:55.815Z,73.77
2019-03-15T21:33:26.502Z,74.08
2019-03-15T21:35:58.249Z,74.04
2019-03-15T21:38:28.760Z,73.65
2019-03-15T21:40:59.345Z,73.65
2019-03-15T21:43:29.864Z,73.67
2019-03-15T21:46:00.444Z,73.62
2019-03-15T21:48:30.996Z,72.91
2019-03-15T21:51:01.906Z,73.26
2019-03-15T21:53:33.209Z,73.90
2019-03-15T21:56:03.783Z,74.02
2019-03-15T21:58:34.336Z,74.34
2019-03-15T22:01:04.813Z,74.72
2019-03-15T22:03:35.377Z,74.84
2019-03-15T22:06:05.846Z,75.13
2019-03-15T22:08:36.292Z,74.84
2019-03-15T22:11:20.185Z,74.90
2019-03-15T22:13:39.084Z,74.86
2019-03-15T22:16:09.511Z,74.89
2019-03-15T22:18:40.173Z,74.27
2019-03-15T22:21:10.696Z,74.45
2019-03-15T22:23:41.183Z,74.16
2019-03-15T22:26:11.816Z,74.09
2019-03-15T22:28:42.270Z,74.14
2019-03-15T22:31:16.980Z,73.84
2019-03-15T22:33:45.039Z,73.69
2019-03-15T22:36:15.543Z,73.89
2019-03-15T22:38:46.201Z,73.56
2019-03-15T22:41:16.689Z,72.89
2019-03-15T22:43:47.231Z,73.15
2019-03-15T22:46:17.708Z,72.98
2019-03-15T22:48:48.220Z,73.14
2019-03-15T22:51:18.702Z,72.97
2019-03-15T22:53:49.540Z,73.37
2019-03-15T22:56:20.297Z,73.36
2019-03-15T22:58:50.774Z,73.25
2019-03-15T23:01:30.022Z,72.86
2019-03-15T23:03:53.486Z,73.35
2019-03-15T23:06:23.985Z,73.12
2019-03-15T23:08:54.622Z,75.02
2019-03-15T23:11:25.133Z,75.76
2019-03-15T23:13:55.631Z,77.65
2019-03-15T23:16:26.160Z,82.40
2019-03-15T23:18:56.646Z,84.68
2019-03-15T23:21:27.151Z,86.61
2019-03-15T23:23:57.615Z,87.40
2019-03-15T23:26:28.162Z,87.14
2019-03-15T23:28:58.623Z,87.61
2019-03-15T23:31:42.510Z,87.13
2019-03-15T23:34:01.363Z,87.26
2019-03-15T23:36:31.936Z,87.00
2019-03-15T23:39:02.389Z,85.61
2019-03-15T23:41:32.949Z,84.34
2019-03-15T23:44:03.454Z,83.71
2019-03-15T23:46:33.972Z,83.46
2019-03-15T23:49:04.505Z,82.84
2019-03-15T23:51:34.946Z,82.11
2019-03-15T23:54:05.404Z,80.49
2019-03-15T23:56:36.882Z,80.48
2019-03-15T23:59:07.397Z,80.14
